sensor_id;sensor_type;location;lat;lon;timestamp;P1;durP1;ratioP1;P2;durP2;ratioP2
12480;SDS011;6305;48.398;11.762;2023-08-06T00:01:34;25.88;;;14.02;;
12480;SDS011;6305;48.398;11.762;2023-08-06T00:04:01;22.35;;;12.85;;
12480;SDS011;6305;48.398;11.762;2023-08-06T00:06:28;23.23;;;12.70;;
12480;SDS011;6305;48.398;11.762;2023-08-06T00:08:56;21.63;;;13.00;;
12480;SDS011;6305;48.398;11.762;2023-08-06T00:11:23;21.17;;;12.88;;
12480;SDS011;6305;48.398;11.762;2023-08-06T00:13:50;21.52;;;13.00;;
12480;SDS011;6305;48.398;11.762;2023-08-06T00:16:17;19.88;;;12.25;;
12480;SDS011;6305;48.398;11.762;2023-08-06T00:18:44;17.90;;;11.55;;
12480;SDS011;6305;48.398;11.762;2023-08-06T00:21:11;19.40;;;12.13;;
12480;SDS011;6305;48.398;11.762;2023-08-06T00:23:38;16.73;;;11.07;;
12480;SDS011;6305;48.398;11.762;2023-08-06T00:26:06;17.48;;;11.90;;
12480;SDS011;6305;48.398;11.762;2023-08-06T00:28:33;16.40;;;10.48;;
12480;SDS011;6305;48.398;11.762;2023-08-06T00:31:00;16.33;;;10.38;;
12480;SDS011;6305;48.398;11.762;2023-08-06T00:33:27;17.13;;;10.98;;
12480;SDS011;6305;48.398;11.762;2023-08-06T00:35:54;16.23;;;10.70;;
12480;SDS011;6305;48.398;11.762;2023-08-06T00:38:21;15.20;;;9.65;;
12480;SDS011;6305;48.398;11.762;2023-08-06T00:40:48;12.60;;;9.23;;
12480;SDS011;6305;48.398;11.762;2023-08-06T00:43:17;13.35;;;9.00;;
12480;SDS011;6305;48.398;11.762;2023-08-06T00:45:44;12.40;;;8.65;;
12480;SDS011;6305;48.398;11.762;2023-08-06T00:48:11;12.40;;;8.93;;
12480;SDS011;6305;48.398;11.762;2023-08-06T00:50:38;12.00;;;7.97;;
12480;SDS011;6305;48.398;11.762;2023-08-06T00:53:05;13.18;;;8.40;;
12480;SDS011;6305;48.398;11.762;2023-08-06T00:55:32;9.63;;;7.68;;
12480;SDS011;6305;48.398;11.762;2023-08-06T00:57:59;11.48;;;8.13;;
12480;SDS011;6305;48.398;11.762;2023-08-06T01:00:29;10.63;;;7.93;;
12480;SDS011;6305;48.398;11.762;2023-08-06T01:02:56;11.43;;;8.15;;
12480;SDS011;6305;48.398;11.762;2023-08-06T01:05:23;11.88;;;8.63;;
12480;SDS011;6305;48.398;11.762;2023-08-06T01:07:52;9.95;;;7.30;;
12480;SDS011;6305;48.398;11.762;2023-08-06T01:10:33;9.85;;;7.95;;
12480;SDS011;6305;48.398;11.762;2023-08-06T01:13:08;10.88;;;7.78;;
12480;SDS011;6305;48.398;11.762;2023-08-06T01:15:46;11.65;;;8.65;;
12480;SDS011;6305;48.398;11.762;2023-08-06T01:18:15;10.65;;;7.95;;
12480;SDS011;6305;48.398;11.762;2023-08-06T01:20:44;10.55;;;7.53;;
12480;SDS011;6305;48.398;11.762;2023-08-06T01:23:11;11.73;;;8.32;;
12480;SDS011;6305;48.398;11.762;2023-08-06T01:25:39;12.50;;;8.02;;
12480;SDS011;6305;48.398;11.762;2023-08-06T01:28:15;11.50;;;7.85;;
12480;SDS011;6305;48.398;11.762;2023-08-06T01:30:49;12.63;;;8.27;;
12480;SDS011;6305;48.398;11.762;2023-08-06T01:33:19;12.82;;;9.02;;
12480;SDS011;6305;48.398;11.762;2023-08-06T01:35:50;14.23;;;8.65;;
12480;SDS011;6305;48.398;11.762;2023-08-06T01:38:19;15.55;;;9.75;;
12480;SDS011;6305;48.398;11.762;2023-08-06T01:40:46;14.68;;;9.45;;
12480;SDS011;6305;48.398;11.762;2023-08-06T01:43:13;14.57;;;9.52;;
12480;SDS011;6305;48.398;11.762;2023-08-06T01:45:40;17.45;;;10.32;;
12480;SDS011;6305;48.398;11.762;2023-08-06T01:48:07;18.73;;;10.68;;
12480;SDS011;6305;48.398;11.762;2023-08-06T01:50:34;17.80;;;11.30;;
12480;SDS011;6305;48.398;11.762;2023-08-06T01:53:02;16.17;;;10.75;;
12480;SDS011;6305;48.398;11.762;2023-08-06T01:55:29;18.92;;;12.38;;
12480;SDS011;6305;48.398;11.762;2023-08-06T01:57:58;21.35;;;12.18;;
12480;SDS011;6305;48.398;11.762;2023-08-06T02:00:25;19.38;;;12.43;;
12480;SDS011;6305;48.398;11.762;2023-08-06T02:02:53;22.33;;;12.85;;
12480;SDS011;6305;48.398;11.762;2023-08-06T02:05:20;20.00;;;12.25;;
12480;SDS011;6305;48.398;11.762;2023-08-06T02:07:47;20.85;;;12.85;;
12480;SDS011;6305;48.398;11.762;2023-08-06T02:10:15;23.00;;;12.85;;
12480;SDS011;6305;48.398;11.762;2023-08-06T02:12:42;22.50;;;13.10;;
12480;SDS011;6305;48.398;11.762;2023-08-06T02:15:09;22.42;;;13.50;;
12480;SDS011;6305;48.398;11.762;2023-08-06T02:17:37;21.00;;;12.52;;
12480;SDS011;6305;48.398;11.762;2023-08-06T02:20:05;19.52;;;12.07;;
12480;SDS011;6305;48.398;11.762;2023-08-06T02:22:33;21.15;;;12.98;;
12480;SDS011;6305;48.398;11.762;2023-08-06T02:25:00;19.48;;;11.93;;
12480;SDS011;6305;48.398;11.762;2023-08-06T02:27:28;21.75;;;12.07;;
12480;SDS011;6305;48.398;11.762;2023-08-06T02:29:56;20.58;;;11.90;;
12480;SDS011;6305;48.398;11.762;2023-08-06T02:32:23;22.10;;;12.35;;
12480;SDS011;6305;48.398;11.762;2023-08-06T02:34:50;18.67;;;10.90;;
12480;SDS011;6305;48.398;11.762;2023-08-06T02:37:16;22.27;;;12.35;;
12480;SDS011;6305;48.398;11.762;2023-08-06T02:39:44;17.42;;;11.25;;
12480;SDS011;6305;48.398;11.762;2023-08-06T02:42:12;21.15;;;12.27;;
12480;SDS011;6305;48.398;11.762;2023-08-06T02:44:41;17.88;;;11.32;;
12480;SDS011;6305;48.398;11.762;2023-08-06T02:47:08;17.02;;;10.93;;
12480;SDS011;6305;48.398;11.762;2023-08-06T02:49:35;21.83;;;11.88;;
12480;SDS011;6305;48.398;11.762;2023-08-06T02:52:02;18.95;;;11.25;;
12480;SDS011;6305;48.398;11.762;2023-08-06T02:54:30;16.80;;;10.68;;
12480;SDS011;6305;48.398;11.762;2023-08-06T02:56:57;19.50;;;10.40;;
12480;SDS011;6305;48.398;11.762;2023-08-06T02:59:27;17.20;;;9.85;;
12480;SDS011;6305;48.398;11.762;2023-08-06T03:02:10;22.38;;;11.80;;
12480;SDS011;6305;48.398;11.762;2023-08-06T03:04:46;19.80;;;11.15;;
12480;SDS011;6305;48.398;11.762;2023-08-06T03:07:14;17.10;;;10.73;;
12480;SDS011;6305;48.398;11.762;2023-08-06T03:09:51;18.70;;;11.45;;
12480;SDS011;6305;48.398;11.762;2023-08-06T03:12:19;19.92;;;11.45;;
12480;SDS011;6305;48.398;11.762;2023-08-06T03:14:47;22.70;;;11.20;;
12480;SDS011;6305;48.398;11.762;2023-08-06T03:17:17;18.15;;;11.10;;
12480;SDS011;6305;48.398;11.762;2023-08-06T03:19:44;18.27;;;11.13;;
12480;SDS011;6305;48.398;11.762;2023-08-06T03:22:11;18.73;;;10.93;;
12480;SDS011;6305;48.398;11.762;2023-08-06T03:24:39;14.38;;;8.55;;
12480;SDS011;6305;48.398;11.762;2023-08-06T03:27:07;18.33;;;11.57;;
12480;SDS011;6305;48.398;11.762;2023-08-06T03:29:36;17.65;;;10.88;;
12480;SDS011;6305;48.398;11.762;2023-08-06T03:32:03;19.33;;;11.55;;
12480;SDS011;6305;48.398;11.762;2023-08-06T03:34:32;21.23;;;11.70;;
12480;SDS011;6305;48.398;11.762;2023-08-06T03:37:00;20.50;;;11.25;;
12480;SDS011;6305;48.398;11.762;2023-08-06T03:39:27;21.25;;;12.32;;
12480;SDS011;6305;48.398;11.762;2023-08-06T03:41:54;21.00;;;12.07;;
12480;SDS011;6305;48.398;11.762;2023-08-06T03:44:22;23.77;;;12.00;;
12480;SDS011;6305;48.398;11.762;2023-08-06T03:46:49;17.73;;;11.32;;
12480;SDS011;6305;48.398;11.762;2023-08-06T03:49:18;21.83;;;11.95;;
12480;SDS011;6305;48.398;11.762;2023-08-06T03:51:47;23.75;;;12.48;;
12480;SDS011;6305;48.398;11.762;2023-08-06T03:54:14;21.02;;;12.18;;
12480;SDS011;6305;48.398;11.762;2023-08-06T03:56:41;20.63;;;12.55;;
12480;SDS011;6305;48.398;11.762;2023-08-06T03:59:08;21.42;;;12.00;;
12480;SDS011;6305;48.398;11.762;2023-08-06T04:01:35;20.27;;;12.27;;
12480;SDS011;6305;48.398;11.762;2023-08-06T04:04:02;23.30;;;12.13;;
12480;SDS011;6305;48.398;11.762;2023-08-06T04:06:29;21.55;;;11.68;;
12480;SDS011;6305;48.398;11.762;2023-08-06T04:08:58;19.17;;;11.32;;
12480;SDS011;6305;48.398;11.762;2023-08-06T04:11:25;23.33;;;12.00;;
12480;SDS011;6305;48.398;11.762;2023-08-06T04:13:52;21.95;;;11.35;;
12480;SDS011;6305;48.398;11.762;2023-08-06T04:16:19;20.67;;;11.70;;
12480;SDS011;6305;48.398;11.762;2023-08-06T04:18:46;20.52;;;11.48;;
12480;SDS011;6305;48.398;11.762;2023-08-06T04:21:14;21.50;;;11.38;;
12480;SDS011;6305;48.398;11.762;2023-08-06T04:23:40;21.50;;;11.75;;
12480;SDS011;6305;48.398;11.762;2023-08-06T04:26:09;20.35;;;12.05;;
12480;SDS011;6305;48.398;11.762;2023-08-06T04:28:37;18.67;;;11.00;;
12480;SDS011;6305;48.398;11.762;2023-08-06T04:31:04;21.23;;;12.52;;
12480;SDS011;6305;48.398;11.762;2023-08-06T04:33:33;18.00;;;11.35;;
12480;SDS011;6305;48.398;11.762;2023-08-06T04:36:06;20.02;;;11.70;;
12480;SDS011;6305;48.398;11.762;2023-08-06T04:38:33;20.20;;;12.13;;
12480;SDS011;6305;48.398;11.762;2023-08-06T04:41:01;20.73;;;12.18;;
12480;SDS011;6305;48.398;11.762;2023-08-06T04:43:30;23.52;;;12.10;;
12480;SDS011;6305;48.398;11.762;2023-08-06T04:45:57;19.63;;;12.57;;
12480;SDS011;6305;48.398;11.762;2023-08-06T04:48:24;20.88;;;12.30;;
12480;SDS011;6305;48.398;11.762;2023-08-06T04:50:51;19.67;;;11.55;;
12480;SDS011;6305;48.398;11.762;2023-08-06T04:53:18;18.85;;;11.25;;
12480;SDS011;6305;48.398;11.762;2023-08-06T04:55:45;16.45;;;10.13;;
12480;SDS011;6305;48.398;11.762;2023-08-06T04:58:12;14.20;;;10.38;;
12480;SDS011;6305;48.398;11.762;2023-08-06T05:00:41;17.13;;;9.60;;
12480;SDS011;6305;48.398;11.762;2023-08-06T05:03:08;14.73;;;9.73;;
12480;SDS011;6305;48.398;11.762;2023-08-06T05:05:35;13.80;;;9.10;;
12480;SDS011;6305;48.398;11.762;2023-08-06T05:08:02;11.30;;;8.50;;
12480;SDS011;6305;48.398;11.762;2023-08-06T05:10:29;11.52;;;7.93;;
12480;SDS011;6305;48.398;11.762;2023-08-06T05:12:56;11.68;;;7.70;;
12480;SDS011;6305;48.398;11.762;2023-08-06T05:15:23;8.82;;;7.20;;
12480;SDS011;6305;48.398;11.762;2023-08-06T05:17:52;9.73;;;6.47;;
12480;SDS011;6305;48.398;11.762;2023-08-06T05:20:20;8.68;;;6.22;;
12480;SDS011;6305;48.398;11.762;2023-08-06T05:22:47;7.30;;;5.63;;
12480;SDS011;6305;48.398;11.762;2023-08-06T05:25:14;6.43;;;5.55;;
12480;SDS011;6305;48.398;11.762;2023-08-06T05:27:41;8.13;;;5.13;;
12480;SDS011;6305;48.398;11.762;2023-08-06T05:30:08;6.53;;;4.70;;
12480;SDS011;6305;48.398;11.762;2023-08-06T05:32:36;5.13;;;4.57;;
12480;SDS011;6305;48.398;11.762;2023-08-06T05:35:05;4.78;;;4.28;;
12480;SDS011;6305;48.398;11.762;2023-08-06T05:37:32;4.93;;;4.30;;
12480;SDS011;6305;48.398;11.762;2023-08-06T05:39:59;4.55;;;3.80;;
12480;SDS011;6305;48.398;11.762;2023-08-06T05:42:26;4.40;;;3.70;;
12480;SDS011;6305;48.398;11.762;2023-08-06T05:44:53;5.45;;;3.90;;
12480;SDS011;6305;48.398;11.762;2023-08-06T05:47:20;5.10;;;3.45;;
12480;SDS011;6305;48.398;11.762;2023-08-06T05:49:47;5.47;;;3.70;;
12480;SDS011;6305;48.398;11.762;2023-08-06T05:52:15;4.75;;;3.78;;
12480;SDS011;6305;48.398;11.762;2023-08-06T05:54:42;4.85;;;3.33;;
12480;SDS011;6305;48.398;11.762;2023-08-06T05:57:09;6.55;;;3.83;;
12480;SDS011;6305;48.398;11.762;2023-08-06T05:59:36;4.78;;;3.55;;
12480;SDS011;6305;48.398;11.762;2023-08-06T06:02:03;10.77;;;3.83;;
12480;SDS011;6305;48.398;11.762;2023-08-06T06:04:30;4.80;;;4.22;;
12480;SDS011;6305;48.398;11.762;2023-08-06T06:06:57;3.50;;;3.20;;
12480;SDS011;6305;48.398;11.762;2023-08-06T06:09:26;4.90;;;3.58;;
12480;SDS011;6305;48.398;11.762;2023-08-06T06:11:52;5.05;;;3.17;;
12480;SDS011;6305;48.398;11.762;2023-08-06T06:14:19;4.00;;;3.10;;
12480;SDS011;6305;48.398;11.762;2023-08-06T06:16:46;3.80;;;3.15;;
12480;SDS011;6305;48.398;11.762;2023-08-06T06:19:13;4.30;;;3.28;;
12480;SDS011;6305;48.398;11.762;2023-08-06T06:21:40;3.28;;;2.97;;
12480;SDS011;6305;48.398;11.762;2023-08-06T06:24:07;4.07;;;2.60;;
12480;SDS011;6305;48.398;11.762;2023-08-06T06:26:35;3.75;;;3.33;;
12480;SDS011;6305;48.398;11.762;2023-08-06T06:29:02;3.53;;;2.55;;
12480;SDS011;6305;48.398;11.762;2023-08-06T06:31:29;3.45;;;3.15;;
12480;SDS011;6305;48.398;11.762;2023-08-06T06:33:56;3.45;;;2.70;;
12480;SDS011;6305;48.398;11.762;2023-08-06T06:36:23;3.88;;;2.80;;
12480;SDS011;6305;48.398;11.762;2023-08-06T06:38:50;3.15;;;2.83;;
12480;SDS011;6305;48.398;11.762;2023-08-06T06:41:17;4.38;;;2.70;;
12480;SDS011;6305;48.398;11.762;2023-08-06T06:43:45;3.45;;;2.75;;
12480;SDS011;6305;48.398;11.762;2023-08-06T06:46:12;2.88;;;2.50;;
12480;SDS011;6305;48.398;11.762;2023-08-06T06:48:39;4.00;;;2.83;;
12480;SDS011;6305;48.398;11.762;2023-08-06T06:51:06;5.05;;;3.00;;
12480;SDS011;6305;48.398;11.762;2023-08-06T06:53:33;3.80;;;3.00;;
12480;SDS011;6305;48.398;11.762;2023-08-06T06:56:01;2.97;;;2.60;;
12480;SDS011;6305;48.398;11.762;2023-08-06T06:58:29;3.17;;;2.55;;
12480;SDS011;6305;48.398;11.762;2023-08-06T07:00:58;3.30;;;2.70;;
12480;SDS011;6305;48.398;11.762;2023-08-06T07:03:25;3.53;;;2.60;;
12480;SDS011;6305;48.398;11.762;2023-08-06T07:05:56;3.05;;;2.75;;
12480;SDS011;6305;48.398;11.762;2023-08-06T07:08:23;3.20;;;2.90;;
12480;SDS011;6305;48.398;11.762;2023-08-06T07:10:50;4.15;;;2.55;;
12480;SDS011;6305;48.398;11.762;2023-08-06T07:13:26;4.10;;;2.97;;
12480;SDS011;6305;48.398;11.762;2023-08-06T07:15:53;3.47;;;2.50;;
12480;SDS011;6305;48.398;11.762;2023-08-06T07:18:22;3.00;;;2.60;;
12480;SDS011;6305;48.398;11.762;2023-08-06T07:20:50;3.45;;;2.80;;
12480;SDS011;6305;48.398;11.762;2023-08-06T07:23:17;2.72;;;2.00;;
12480;SDS011;6305;48.398;11.762;2023-08-06T07:25:45;2.08;;;1.88;;
12480;SDS011;6305;48.398;11.762;2023-08-06T07:28:12;2.30;;;1.92;;
12480;SDS011;6305;48.398;11.762;2023-08-06T07:30:39;2.13;;;1.77;;
12480;SDS011;6305;48.398;11.762;2023-08-06T07:33:06;2.17;;;1.80;;
12480;SDS011;6305;48.398;11.762;2023-08-06T07:35:35;2.20;;;1.80;;
12480;SDS011;6305;48.398;11.762;2023-08-06T07:38:02;2.20;;;1.98;;
12480;SDS011;6305;48.398;11.762;2023-08-06T07:40:29;3.58;;;1.80;;
12480;SDS011;6305;48.398;11.762;2023-08-06T07:42:56;1.70;;;1.60;;
12480;SDS011;6305;48.398;11.762;2023-08-06T07:45:24;5.28;;;1.90;;
12480;SDS011;6305;48.398;11.762;2023-08-06T07:47:52;2.47;;;1.55;;
12480;SDS011;6305;48.398;11.762;2023-08-06T07:50:19;2.85;;;1.50;;
12480;SDS011;6305;48.398;11.762;2023-08-06T07:52:47;3.42;;;1.55;;
12480;SDS011;6305;48.398;11.762;2023-08-06T07:55:14;2.83;;;1.40;;
12480;SDS011;6305;48.398;11.762;2023-08-06T07:57:41;2.25;;;1.58;;
12480;SDS011;6305;48.398;11.762;2023-08-06T08:00:08;2.92;;;1.65;;
12480;SDS011;6305;48.398;11.762;2023-08-06T08:02:38;2.63;;;1.20;;
12480;SDS011;6305;48.398;11.762;2023-08-06T08:05:05;1.08;;;0.80;;
12480;SDS011;6305;48.398;11.762;2023-08-06T08:07:32;2.00;;;1.20;;
12480;SDS011;6305;48.398;11.762;2023-08-06T08:10:01;2.20;;;1.60;;
12480;SDS011;6305;48.398;11.762;2023-08-06T08:12:28;1.60;;;1.08;;
12480;SDS011;6305;48.398;11.762;2023-08-06T08:14:55;2.08;;;1.10;;
12480;SDS011;6305;48.398;11.762;2023-08-06T08:17:22;1.50;;;0.90;;
12480;SDS011;6305;48.398;11.762;2023-08-06T08:19:49;1.48;;;0.80;;
12480;SDS011;6305;48.398;11.762;2023-08-06T08:22:16;1.23;;;0.88;;
12480;SDS011;6305;48.398;11.762;2023-08-06T08:24:43;1.17;;;0.77;;
12480;SDS011;6305;48.398;11.762;2023-08-06T08:27:11;1.15;;;0.73;;
12480;SDS011;6305;48.398;11.762;2023-08-06T08:29:38;1.50;;;0.80;;
12480;SDS011;6305;48.398;11.762;2023-08-06T08:32:05;1.05;;;0.88;;
12480;SDS011;6305;48.398;11.762;2023-08-06T08:34:32;1.30;;;0.98;;
12480;SDS011;6305;48.398;11.762;2023-08-06T08:36:59;1.30;;;1.00;;
12480;SDS011;6305;48.398;11.762;2023-08-06T08:39:26;1.15;;;0.90;;
12480;SDS011;6305;48.398;11.762;2023-08-06T08:41:53;1.63;;;0.80;;
12480;SDS011;6305;48.398;11.762;2023-08-06T08:44:21;1.13;;;0.95;;
12480;SDS011;6305;48.398;11.762;2023-08-06T08:46:48;1.70;;;0.80;;
12480;SDS011;6305;48.398;11.762;2023-08-06T08:49:15;0.80;;;0.70;;
12480;SDS011;6305;48.398;11.762;2023-08-06T08:51:43;1.00;;;0.90;;
12480;SDS011;6305;48.398;11.762;2023-08-06T08:54:12;2.50;;;1.02;;
12480;SDS011;6305;48.398;11.762;2023-08-06T08:56:41;1.73;;;1.00;;
12480;SDS011;6305;48.398;11.762;2023-08-06T08:59:09;0.88;;;0.80;;
12480;SDS011;6305;48.398;11.762;2023-08-06T09:01:38;1.30;;;0.90;;
12480;SDS011;6305;48.398;11.762;2023-08-06T09:04:08;1.92;;;0.90;;
12480;SDS011;6305;48.398;11.762;2023-08-06T09:06:37;1.63;;;0.75;;
12480;SDS011;6305;48.398;11.762;2023-08-06T09:09:08;1.63;;;0.93;;
12480;SDS011;6305;48.398;11.762;2023-08-06T09:11:39;1.27;;;0.73;;
12480;SDS011;6305;48.398;11.762;2023-08-06T09:14:10;0.88;;;0.80;;
12480;SDS011;6305;48.398;11.762;2023-08-06T09:16:39;0.82;;;0.75;;
12480;SDS011;6305;48.398;11.762;2023-08-06T09:19:07;0.98;;;0.63;;
12480;SDS011;6305;48.398;11.762;2023-08-06T09:21:36;0.73;;;0.60;;
12480;SDS011;6305;48.398;11.762;2023-08-06T09:24:06;1.20;;;0.80;;
12480;SDS011;6305;48.398;11.762;2023-08-06T09:26:34;1.25;;;0.70;;
12480;SDS011;6305;48.398;11.762;2023-08-06T09:29:03;2.03;;;0.95;;
12480;SDS011;6305;48.398;11.762;2023-08-06T09:31:32;1.27;;;0.82;;
12480;SDS011;6305;48.398;11.762;2023-08-06T09:34:01;2.60;;;0.75;;
12480;SDS011;6305;48.398;11.762;2023-08-06T09:36:29;1.02;;;0.70;;
12480;SDS011;6305;48.398;11.762;2023-08-06T09:38:56;0.57;;;0.50;;
12480;SDS011;6305;48.398;11.762;2023-08-06T09:41:26;1.45;;;0.75;;
12480;SDS011;6305;48.398;11.762;2023-08-06T09:43:54;1.60;;;0.77;;
12480;SDS011;6305;48.398;11.762;2023-08-06T09:46:21;0.95;;;0.70;;
12480;SDS011;6305;48.398;11.762;2023-08-06T09:48:48;0.60;;;0.60;;
12480;SDS011;6305;48.398;11.762;2023-08-06T09:51:18;0.75;;;0.75;;
12480;SDS011;6305;48.398;11.762;2023-08-06T09:53:45;0.93;;;0.70;;
12480;SDS011;6305;48.398;11.762;2023-08-06T09:56:16;1.10;;;0.60;;
12480;SDS011;6305;48.398;11.762;2023-08-06T09:58:44;0.55;;;0.50;;
12480;SDS011;6305;48.398;11.762;2023-08-06T10:01:15;0.63;;;0.43;;
12480;SDS011;6305;48.398;11.762;2023-08-06T10:03:44;1.00;;;0.50;;
12480;SDS011;6305;48.398;11.762;2023-08-06T10:06:12;0.68;;;0.60;;
12480;SDS011;6305;48.398;11.762;2023-08-06T10:08:41;2.92;;;0.60;;
12480;SDS011;6305;48.398;11.762;2023-08-06T10:11:08;0.60;;;0.60;;
12480;SDS011;6305;48.398;11.762;2023-08-06T10:13:35;1.27;;;1.13;;
12480;SDS011;6305;48.398;11.762;2023-08-06T10:16:04;0.85;;;0.70;;
12480;SDS011;6305;48.398;11.762;2023-08-06T10:18:31;0.82;;;0.80;;
12480;SDS011;6305;48.398;11.762;2023-08-06T10:20:59;2.33;;;0.93;;
12480;SDS011;6305;48.398;11.762;2023-08-06T10:23:32;1.70;;;0.77;;
12480;SDS011;6305;48.398;11.762;2023-08-06T10:26:02;2.38;;;0.70;;
12480;SDS011;6305;48.398;11.762;2023-08-06T10:28:33;0.70;;;0.60;;
12480;SDS011;6305;48.398;11.762;2023-08-06T10:31:01;2.00;;;0.65;;
12480;SDS011;6305;48.398;11.762;2023-08-06T10:33:39;1.13;;;0.50;;
12480;SDS011;6305;48.398;11.762;2023-08-06T10:36:08;1.58;;;0.50;;
12480;SDS011;6305;48.398;11.762;2023-08-06T10:38:43;0.55;;;0.40;;
12480;SDS011;6305;48.398;11.762;2023-08-06T10:41:16;1.35;;;0.35;;
12480;SDS011;6305;48.398;11.762;2023-08-06T10:43:48;2.15;;;0.38;;
12480;SDS011;6305;48.398;11.762;2023-08-06T10:46:26;1.38;;;0.40;;
12480;SDS011;6305;48.398;11.762;2023-08-06T10:48:53;0.50;;;0.38;;
12480;SDS011;6305;48.398;11.762;2023-08-06T10:51:20;0.50;;;0.47;;
12480;SDS011;6305;48.398;11.762;2023-08-06T10:53:48;1.05;;;0.40;;
12480;SDS011;6305;48.398;11.762;2023-08-06T10:56:18;1.92;;;0.70;;
12480;SDS011;6305;48.398;11.762;2023-08-06T10:58:47;0.85;;;0.40;;
12480;SDS011;6305;48.398;11.762;2023-08-06T11:01:15;0.35;;;0.30;;
12480;SDS011;6305;48.398;11.762;2023-08-06T11:03:45;0.20;;;0.20;;
12480;SDS011;6305;48.398;11.762;2023-08-06T11:06:16;0.30;;;0.30;;
12480;SDS011;6305;48.398;11.762;2023-08-06T11:08:46;2.90;;;0.50;;
12480;SDS011;6305;48.398;11.762;2023-08-06T11:11:15;0.63;;;0.35;;
12480;SDS011;6305;48.398;11.762;2023-08-06T11:13:44;1.00;;;0.38;;
12480;SDS011;6305;48.398;11.762;2023-08-06T11:16:12;1.10;;;0.50;;
12480;SDS011;6305;48.398;11.762;2023-08-06T11:18:40;2.28;;;0.30;;
12480;SDS011;6305;48.398;11.762;2023-08-06T11:21:07;0.32;;;0.25;;
12480;SDS011;6305;48.398;11.762;2023-08-06T11:23:34;0.20;;;0.20;;
12480;SDS011;6305;48.398;11.762;2023-08-06T11:26:01;1.10;;;0.40;;
12480;SDS011;6305;48.398;11.762;2023-08-06T11:28:30;0.25;;;0.25;;
12480;SDS011;6305;48.398;11.762;2023-08-06T11:30:58;1.05;;;0.30;;
12480;SDS011;6305;48.398;11.762;2023-08-06T11:33:27;0.52;;;0.30;;
12480;SDS011;6305;48.398;11.762;2023-08-06T11:35:55;0.63;;;0.28;;
12480;SDS011;6305;48.398;11.762;2023-08-06T11:38:24;0.65;;;0.32;;
12480;SDS011;6305;48.398;11.762;2023-08-06T11:40:52;0.57;;;0.30;;
12480;SDS011;6305;48.398;11.762;2023-08-06T11:43:19;0.13;;;0.13;;
12480;SDS011;6305;48.398;11.762;2023-08-06T11:45:49;0.50;;;0.20;;
12480;SDS011;6305;48.398;11.762;2023-08-06T11:48:19;0.20;;;0.20;;
12480;SDS011;6305;48.398;11.762;2023-08-06T11:50:46;0.30;;;0.22;;
12480;SDS011;6305;48.398;11.762;2023-08-06T11:53:13;0.85;;;0.20;;
12480;SDS011;6305;48.398;11.762;2023-08-06T11:55:41;0.30;;;0.30;;
12480;SDS011;6305;48.398;11.762;2023-08-06T11:58:09;0.63;;;0.30;;
12480;SDS011;6305;48.398;11.762;2023-08-06T12:00:37;1.85;;;0.28;;
12480;SDS011;6305;48.398;11.762;2023-08-06T12:03:05;0.93;;;0.20;;
12480;SDS011;6305;48.398;11.762;2023-08-06T12:05:32;0.20;;;0.20;;
12480;SDS011;6305;48.398;11.762;2023-08-06T12:08:00;0.35;;;0.30;;
12480;SDS011;6305;48.398;11.762;2023-08-06T12:10:29;0.20;;;0.20;;
12480;SDS011;6305;48.398;11.762;2023-08-06T12:12:57;1.85;;;0.28;;
12480;SDS011;6305;48.398;11.762;2023-08-06T12:15:24;0.20;;;0.20;;
12480;SDS011;6305;48.398;11.762;2023-08-06T12:17:51;0.17;;;0.15;;
12480;SDS011;6305;48.398;11.762;2023-08-06T12:20:20;0.90;;;0.20;;
12480;SDS011;6305;48.398;11.762;2023-08-06T12:22:47;0.22;;;0.22;;
12480;SDS011;6305;48.398;11.762;2023-08-06T12:25:14;0.30;;;0.30;;
12480;SDS011;6305;48.398;11.762;2023-08-06T12:27:42;0.10;;;0.10;;
12480;SDS011;6305;48.398;11.762;2023-08-06T12:30:11;1.30;;;0.20;;
12480;SDS011;6305;48.398;11.762;2023-08-06T12:32:39;0.20;;;0.20;;
12480;SDS011;6305;48.398;11.762;2023-08-06T12:35:06;0.77;;;0.20;;
12480;SDS011;6305;48.398;11.762;2023-08-06T12:37:36;0.20;;;0.20;;
12480;SDS011;6305;48.398;11.762;2023-08-06T12:40:04;0.30;;;0.30;;
12480;SDS011;6305;48.398;11.762;2023-08-06T12:42:31;0.40;;;0.30;;
12480;SDS011;6305;48.398;11.762;2023-08-06T12:44:58;0.10;;;0.10;;
12480;SDS011;6305;48.398;11.762;2023-08-06T12:47:25;0.20;;;0.20;;
12480;SDS011;6305;48.398;11.762;2023-08-06T12:49:52;0.20;;;0.20;;
12480;SDS011;6305;48.398;11.762;2023-08-06T12:52:19;0.75;;;0.40;;
12480;SDS011;6305;48.398;11.762;2023-08-06T12:54:47;0.30;;;0.30;;
12480;SDS011;6305;48.398;11.762;2023-08-06T12:57:14;0.30;;;0.30;;
12480;SDS011;6305;48.398;11.762;2023-08-06T12:59:42;0.30;;;0.30;;
12480;SDS011;6305;48.398;11.762;2023-08-06T13:02:09;0.35;;;0.30;;
12480;SDS011;6305;48.398;11.762;2023-08-06T13:04:36;0.43;;;0.30;;
12480;SDS011;6305;48.398;11.762;2023-08-06T13:07:03;0.43;;;0.30;;
12480;SDS011;6305;48.398;11.762;2023-08-06T13:09:31;1.20;;;0.50;;
12480;SDS011;6305;48.398;11.762;2023-08-06T13:12:00;0.30;;;0.30;;
12480;SDS011;6305;48.398;11.762;2023-08-06T13:14:31;1.35;;;0.30;;
12480;SDS011;6305;48.398;11.762;2023-08-06T13:16:58;0.52;;;0.30;;
12480;SDS011;6305;48.398;11.762;2023-08-06T13:19:25;0.20;;;0.20;;
12480;SDS011;6305;48.398;11.762;2023-08-06T13:21:58;0.10;;;0.10;;
12480;SDS011;6305;48.398;11.762;2023-08-06T13:24:30;1.00;;;0.38;;
12480;SDS011;6305;48.398;11.762;2023-08-06T13:26:57;0.20;;;0.20;;
12480;SDS011;6305;48.398;11.762;2023-08-06T13:29:26;0.38;;;0.17;;
12480;SDS011;6305;48.398;11.762;2023-08-06T13:31:53;0.38;;;0.20;;
12480;SDS011;6305;48.398;11.762;2023-08-06T13:34:20;0.30;;;0.30;;
12480;SDS011;6305;48.398;11.762;2023-08-06T13:36:47;0.05;;;0.05;;
12480;SDS011;6305;48.398;11.762;2023-08-06T13:39:15;0.10;;;0.10;;
12480;SDS011;6305;48.398;11.762;2023-08-06T13:41:43;0.10;;;0.10;;
12480;SDS011;6305;48.398;11.762;2023-08-06T13:44:11;0.20;;;0.10;;
12480;SDS011;6305;48.398;11.762;2023-08-06T13:46:40;0.32;;;0.20;;
12480;SDS011;6305;48.398;11.762;2023-08-06T13:49:07;0.93;;;0.20;;
12480;SDS011;6305;48.398;11.762;2023-08-06T13:51:34;0.70;;;0.30;;
12480;SDS011;6305;48.398;11.762;2023-08-06T13:54:01;0.93;;;0.40;;
12480;SDS011;6305;48.398;11.762;2023-08-06T13:56:28;0.50;;;0.40;;
12480;SDS011;6305;48.398;11.762;2023-08-06T13:58:55;0.98;;;0.40;;
12480;SDS011;6305;48.398;11.762;2023-08-06T14:01:24;0.10;;;0.10;;
12480;SDS011;6305;48.398;11.762;2023-08-06T14:03:51;0.20;;;0.20;;
12480;SDS011;6305;48.398;11.762;2023-08-06T14:06:19;0.15;;;0.15;;
12480;SDS011;6305;48.398;11.762;2023-08-06T14:08:46;0.20;;;0.20;;
12480;SDS011;6305;48.398;11.762;2023-08-06T14:11:13;0.35;;;0.35;;
12480;SDS011;6305;48.398;11.762;2023-08-06T14:13:40;0.35;;;0.20;;
12480;SDS011;6305;48.398;11.762;2023-08-06T14:16:07;0.57;;;0.40;;
12480;SDS011;6305;48.398;11.762;2023-08-06T14:18:36;0.35;;;0.30;;
12480;SDS011;6305;48.398;11.762;2023-08-06T14:21:03;0.30;;;0.30;;
12480;SDS011;6305;48.398;11.762;2023-08-06T14:23:30;1.48;;;1.30;;
12480;SDS011;6305;48.398;11.762;2023-08-06T14:25:57;1.75;;;1.50;;
12480;SDS011;6305;48.398;11.762;2023-08-06T14:28:24;4.25;;;0.60;;
12480;SDS011;6305;48.398;11.762;2023-08-06T14:30:51;1.00;;;0.60;;
12480;SDS011;6305;48.398;11.762;2023-08-06T14:33:18;2.35;;;0.50;;
12480;SDS011;6305;48.398;11.762;2023-08-06T14:35:47;0.65;;;0.40;;
12480;SDS011;6305;48.398;11.762;2023-08-06T14:38:14;1.23;;;0.52;;
12480;SDS011;6305;48.398;11.762;2023-08-06T14:40:43;0.73;;;0.40;;
12480;SDS011;6305;48.398;11.762;2023-08-06T14:43:10;0.85;;;0.40;;
12480;SDS011;6305;48.398;11.762;2023-08-06T14:45:37;0.82;;;0.65;;